createdAt,value
2019-03-05T00:02:11.311Z,6.45
2019-03-05T00:05:28.642Z,6.49
2019-03-05T00:08:35.830Z,6.40
2019-03-05T00:11:52.372Z,6.34
2019-03-05T00:15:10.100Z,6.43
2019-03-05T00:18:17.320Z,6.48
2019-03-05T00:21:24.438Z,6.45
2019-03-05T00:25:03.974Z,6.35
2019-03-05T00:28:18.798Z,6.46
2019-03-05T00:31:30.821Z,6.51
2019-03-05T00:35:00.044Z,6.47
2019-03-05T00:38:22.448Z,6.48
2019-03-05T00:41:36.947Z,6.48
2019-03-05T00:45:28.648Z,6.40
2019-03-05T00:49:13.323Z,6.43
2019-03-05T00:53:10.969Z,6.47
2019-03-05T00:56:44.186Z,6.59
2019-03-05T01:00:10.294Z,6.46
2019-03-05T01:03:40.656Z,6.52
2019-03-05T01:06:47.861Z,6.48
2019-03-05T01:09:55.154Z,6.56
2019-03-05T01:13:02.483Z,6.56
2019-03-05T01:16:11.237Z,6.59
2019-03-05T01:19:18.369Z,6.60
2019-03-05T01:22:25.659Z,6.62
2019-03-05T01:25:33.415Z,6.63
2019-03-05T01:28:49.700Z,6.58
2019-03-05T01:32:19.037Z,6.67
2019-03-05T01:35:39.606Z,6.59
2019-03-05T01:39:23.720Z,6.68
2019-03-05T01:42:30.955Z,6.67
2019-03-05T01:45:38.083Z,6.69
2019-03-05T01:48:45.194Z,6.71
2019-03-05T01:51:52.558Z,6.58
2019-03-05T01:54:59.820Z,6.72
2019-03-05T01:58:07.110Z,6.72
2019-03-05T02:01:14.245Z,6.67
2019-03-05T02:04:21.743Z,6.76
2019-03-05T02:07:38.543Z,6.75
2019-03-05T02:10:55.268Z,6.73
2019-03-05T02:14:02.495Z,6.70
2019-03-05T02:17:09.695Z,6.79
2019-03-05T02:20:22.512Z,6.72
2019-03-05T02:24:02.334Z,6.67
2019-03-05T02:27:37.200Z,6.75
2019-03-05T02:31:25.609Z,6.59
2019-03-05T02:35:08.204Z,6.41
2019-03-05T02:39:15.221Z,6.30
2019-03-05T02:42:51.226Z,6.19
2019-03-05T02:46:04.685Z,6.18
2019-03-05T02:49:52.499Z,6.07
2019-03-05T02:53:20.666Z,6.06
2019-03-05T02:56:42.351Z,6.08
2019-03-05T02:59:51.453Z,6.02
2019-03-05T03:03:43.814Z,5.90
2019-03-05T03:06:51.542Z,5.72
2019-03-05T03:10:22.703Z,5.63
2019-03-05T03:13:39.329Z,5.61
2019-03-05T03:16:46.527Z,5.60
2019-03-05T03:19:53.651Z,5.68
2019-03-05T03:23:00.907Z,5.67
2019-03-05T03:26:08.207Z,5.57
2019-03-05T03:29:24.990Z,5.73
2019-03-05T03:32:32.429Z,5.68
2019-03-05T03:35:48.952Z,5.75
2019-03-05T03:38:56.144Z,5.72
2019-03-05T03:42:03.365Z,5.75
2019-03-05T03:45:22.015Z,5.80
2019-03-05T03:48:38.581Z,5.88
2019-03-05T03:51:45.120Z,5.84
2019-03-05T03:54:52.309Z,5.75
2019-03-05T03:57:59.555Z,5.82
2019-03-05T04:01:07.418Z,5.86
2019-03-05T04:04:24.141Z,5.93
2019-03-05T04:07:31.256Z,5.84
2019-03-05T04:10:38.448Z,5.80
2019-03-05T04:13:45.583Z,5.74
2019-03-05T04:16:52.774Z,5.77
2019-03-05T04:19:59.932Z,5.77
2019-03-05T04:23:07.215Z,5.72
2019-03-05T04:26:14.358Z,5.70
2019-03-05T04:29:21.807Z,5.73
2019-03-05T04:32:38.562Z,5.77
2019-03-05T04:35:55.157Z,5.77
2019-03-05T04:39:02.410Z,5.73
2019-03-05T04:42:09.650Z,5.76
2019-03-05T04:46:02.184Z,5.77
2019-03-05T04:49:26.634Z,5.69
2019-03-05T04:52:50.988Z,5.74
2019-03-05T04:55:58.232Z,5.66
2019-03-05T04:59:05.431Z,5.67
2019-03-05T05:02:12.553Z,5.71
2019-03-05T05:05:19.901Z,5.72
2019-03-05T05:08:27.079Z,5.68
2019-03-05T05:11:43.863Z,5.71
2019-03-05T05:15:00.529Z,5.75
2019-03-05T05:18:07.723Z,5.67
2019-03-05T05:21:14.944Z,5.68
2019-03-05T05:24:22.133Z,5.39
2019-03-05T05:27:29.355Z,5.40
2019-03-05T05:30:38.107Z,5.24
2019-03-05T05:33:45.238Z,5.27
2019-03-05T05:36:52.461Z,5.27
2019-03-05T05:40:25.103Z,5.21
2019-03-05T05:43:32.577Z,5.23
2019-03-05T05:46:39.774Z,5.18
2019-03-05T05:49:46.975Z,5.20
2019-03-05T05:52:54.284Z,5.21
2019-03-05T05:56:01.588Z,5.12
2019-03-05T05:59:18.146Z,5.16
2019-03-05T06:02:25.382Z,5.12
2019-03-05T06:05:32.730Z,5.05
2019-03-05T06:08:49.374Z,5.13
2019-03-05T06:11:56.574Z,5.18
2019-03-05T06:15:03.735Z,5.15
2019-03-05T06:18:10.958Z,5.11
2019-03-05T06:21:18.181Z,5.16
2019-03-05T06:24:25.332Z,5.19
2019-03-05T06:27:32.557Z,5.20
2019-03-05T06:30:39.900Z,5.23
2019-03-05T06:33:45.512Z,5.24
2019-03-05T06:37:02.193Z,5.24
2019-03-05T06:40:12.298Z,5.19
2019-03-05T06:43:19.358Z,5.22
2019-03-05T06:46:26.689Z,5.23
2019-03-05T06:49:33.945Z,5.27
2019-03-05T06:52:41.132Z,5.29
2019-03-05T06:55:48.318Z,5.31
2019-03-05T06:58:55.441Z,5.34
2019-03-05T07:02:02.566Z,5.34
2019-03-05T07:05:47.115Z,5.32
2019-03-05T07:09:09.308Z,5.45
2019-03-05T07:12:37.733Z,5.32
2019-03-05T07:15:54.629Z,5.44
2019-03-05T07:19:12.169Z,5.41
2019-03-05T07:22:52.800Z,5.51
2019-03-05T07:26:09.211Z,5.50
2019-03-05T07:29:18.088Z,5.62
2019-03-05T07:32:24.197Z,5.60
2019-03-05T07:35:40.448Z,5.53
2019-03-05T07:38:47.538Z,5.57
2019-03-05T07:41:54.780Z,5.51
2019-03-05T07:45:01.931Z,5.59
2019-03-05T07:48:09.137Z,5.63
2019-03-05T07:51:16.413Z,5.57
2019-03-05T07:54:23.635Z,5.64
2019-03-05T07:57:30.847Z,5.62
2019-03-05T08:00:38.009Z,5.67
2019-03-05T08:03:45.228Z,5.69
2019-03-05T08:06:52.575Z,5.74
2019-03-05T08:10:34.508Z,5.88
2019-03-05T08:14:24.002Z,5.94
2019-03-05T08:17:40.366Z,5.94
2019-03-05T08:20:47.679Z,5.89
2019-03-05T08:23:54.868Z,5.85
2019-03-05T08:27:02.117Z,5.89
2019-03-05T08:30:18.793Z,6.02
2019-03-05T08:33:25.919Z,5.97
2019-03-05T08:36:33.098Z,5.95
2019-03-05T08:39:40.293Z,5.99
2019-03-05T08:42:47.415Z,5.99
2019-03-05T08:45:54.808Z,5.98
2019-03-05T08:49:02.012Z,5.96
2019-03-05T08:52:09.206Z,6.04
2019-03-05T08:55:25.921Z,6.07
2019-03-05T08:58:33.142Z,5.99
2019-03-05T09:01:40.336Z,6.04
2019-03-05T09:04:47.460Z,6.07
2019-03-05T09:07:54.753Z,6.10
2019-03-05T09:11:02.052Z,6.05
2019-03-05T09:14:09.243Z,6.11
2019-03-05T09:17:16.453Z,6.11
2019-03-05T09:20:23.842Z,6.17
2019-03-05T09:23:40.280Z,6.20
2019-03-05T09:26:51.318Z,6.14
2019-03-05T09:29:56.355Z,6.14
2019-03-05T09:33:03.559Z,6.17
2019-03-05T09:36:10.673Z,6.07
2019-03-05T09:39:18.039Z,6.10
2019-03-05T09:42:25.238Z,6.04
2019-03-05T09:45:32.450Z,6.00
2019-03-05T09:48:49.116Z,6.07
2019-03-05T09:51:56.245Z,5.99
2019-03-05T09:55:03.874Z,5.87
2019-03-05T09:58:20.339Z,5.72
2019-03-05T10:01:27.619Z,5.62
2019-03-05T10:04:34.876Z,5.73
2019-03-05T10:07:57.834Z,5.73
2019-03-05T10:11:14.538Z,5.76
2019-03-05T10:14:30.975Z,5.89
2019-03-05T10:17:38.393Z,5.82
2019-03-05T10:20:54.955Z,5.76
2019-03-05T10:24:09.981Z,5.78
2019-03-05T10:27:20.583Z,5.92
2019-03-05T10:30:28.539Z,5.88
2019-03-05T10:33:35.862Z,5.82
2019-03-05T10:36:43.272Z,5.90
2019-03-05T10:39:50.606Z,6.07
2019-03-05T10:43:08.037Z,5.91
2019-03-05T10:46:06.802Z,5.98
2019-03-05T10:49:14.004Z,5.92
2019-03-05T10:52:21.193Z,6.03
2019-03-05T10:55:28.535Z,6.07
2019-03-05T10:58:35.736Z,6.11
2019-03-05T11:01:43.705Z,6.03
2019-03-05T11:04:52.423Z,6.06
2019-03-05T11:07:59.760Z,5.92
2019-03-05T11:11:13.388Z,5.87
2019-03-05T11:14:15.850Z,5.71
2019-03-05T11:17:23.128Z,5.61
2019-03-05T11:20:30.488Z,5.69
2019-03-05T11:23:37.799Z,5.60
2019-03-05T11:26:45.011Z,5.34
2019-03-05T11:29:52.131Z,5.32
2019-03-05T11:32:59.405Z,5.34
2019-03-05T11:36:06.719Z,5.31
2019-03-05T11:39:14.180Z,5.22
2019-03-05T11:42:21.454Z,5.22
2019-03-05T11:45:28.842Z,5.32
2019-03-05T11:48:45.539Z,5.45
2019-03-05T11:52:02.310Z,5.38
2019-03-05T11:55:11.351Z,5.37
2019-03-05T11:58:27.819Z,5.62
2019-03-05T12:01:40.422Z,5.53
2019-03-05T12:04:47.542Z,5.55
2019-03-05T12:07:54.757Z,5.51
2019-03-05T12:11:01.978Z,5.66
2019-03-05T12:14:09.317Z,5.82
2019-03-05T12:17:17.193Z,5.81
2019-03-05T12:20:24.401Z,5.78
2019-03-05T12:23:31.626Z,5.93
2019-03-05T12:26:38.927Z,6.03
2019-03-05T12:29:46.152Z,5.95
2019-03-05T12:32:53.425Z,6.01
2019-03-05T12:36:00.563Z,5.99
2019-03-05T12:39:09.064Z,6.05
2019-03-05T12:42:16.305Z,6.01
2019-03-05T12:45:24.033Z,6.10
2019-03-05T12:48:40.670Z,6.17
2019-03-05T12:51:57.307Z,6.09
2019-03-05T12:55:05.338Z,6.06
2019-03-05T12:58:12.529Z,5.92
2019-03-05T13:01:19.658Z,5.80
2019-03-05T13:04:26.794Z,5.54
2019-03-05T13:07:33.948Z,5.47
2019-03-05T13:10:41.058Z,5.41
2019-03-05T13:14:07.239Z,5.40
2019-03-05T13:17:06.282Z,5.23
2019-03-05T13:20:26.270Z,5.33
2019-03-05T13:23:41.664Z,5.29
2019-03-05T13:26:58.492Z,5.39
2019-03-05T13:30:22.073Z,5.39
2019-03-05T13:33:28.424Z,5.41
2019-03-05T13:36:35.622Z,5.51
2019-03-05T13:39:42.824Z,5.60
2019-03-05T13:42:50.104Z,5.71
2019-03-05T13:46:07.104Z,5.65
2019-03-05T13:49:40.937Z,5.79
2019-03-05T13:53:30.161Z,5.78
2019-03-05T13:56:51.627Z,5.92
2019-03-05T14:00:08.862Z,6.15
2019-03-05T14:03:35.400Z,6.48
2019-03-05T14:06:59.564Z,6.46
2019-03-05T14:10:06.801Z,6.45
2019-03-05T14:13:13.907Z,6.67
2019-03-05T14:16:21.970Z,6.83
2019-03-05T14:19:29.297Z,6.97
2019-03-05T14:22:36.655Z,6.81
2019-03-05T14:25:43.947Z,6.69
2019-03-05T14:28:51.271Z,6.97
2019-03-05T14:31:58.581Z,7.14
2019-03-05T14:35:18.011Z,7.22
2019-03-05T14:38:25.333Z,7.75
2019-03-05T14:41:32.659Z,7.66
2019-03-05T14:44:40.570Z,7.61
2019-03-05T14:47:59.172Z,7.93
2019-03-05T14:51:15.567Z,8.25
2019-03-05T14:54:22.861Z,8.23
2019-03-05T14:57:41.491Z,8.49
2019-03-05T15:00:48.918Z,8.18
2019-03-05T15:04:05.746Z,8.86
2019-03-05T15:07:22.204Z,9.02
2019-03-05T15:10:29.478Z,8.82
2019-03-05T15:13:36.648Z,8.85
2019-03-05T15:16:53.418Z,9.31
2019-03-05T15:20:00.570Z,8.46
2019-03-05T15:23:07.724Z,8.47
2019-03-05T15:26:14.909Z,8.04
2019-03-05T15:29:22.184Z,8.08
2019-03-05T15:32:29.263Z,7.90
2019-03-05T15:35:36.458Z,7.90
2019-03-05T15:38:43.645Z,7.74
2019-03-05T15:41:51.044Z,7.69
2019-03-05T15:44:58.136Z,7.72
2019-03-05T15:48:05.602Z,7.53
2019-03-05T15:51:22.160Z,7.65
2019-03-05T15:54:29.484Z,7.46
2019-03-05T15:57:46.109Z,7.52
2019-03-05T16:00:53.377Z,7.45
2019-03-05T16:04:00.603Z,7.32
2019-03-05T16:07:17.451Z,7.41
2019-03-05T16:10:24.723Z,7.20
2019-03-05T16:13:41.412Z,7.24
2019-03-05T16:16:51.804Z,7.23
2019-03-05T16:20:08.631Z,7.22
2019-03-05T16:23:15.919Z,7.01
2019-03-05T16:26:32.584Z,7.04
2019-03-05T16:29:39.702Z,7.08
2019-03-05T16:32:52.170Z,6.89
2019-03-05T16:36:37.777Z,7.08
2019-03-05T16:40:18.290Z,6.96
2019-03-05T16:43:40.801Z,6.92
2019-03-05T16:47:25.331Z,6.92
2019-03-05T16:50:56.893Z,6.86
2019-03-05T16:54:40.870Z,6.92
2019-03-05T16:57:55.726Z,6.87
2019-03-05T17:01:26.639Z,6.79
2019-03-05T17:05:14.920Z,6.76
2019-03-05T17:08:50.752Z,6.54
2019-03-05T17:11:58.073Z,6.64
2019-03-05T17:15:05.621Z,6.51
2019-03-05T17:18:12.835Z,6.45
2019-03-05T17:21:27.051Z,6.31
2019-03-05T17:24:38.471Z,6.36
2019-03-05T17:27:55.156Z,6.22
2019-03-05T17:31:02.441Z,6.30
2019-03-05T17:34:19.408Z,6.36
2019-03-05T17:37:36.022Z,6.22
2019-03-05T17:40:52.663Z,6.26
2019-03-05T17:44:19.527Z,6.10
2019-03-05T17:47:36.368Z,6.08
2019-03-05T17:50:59.200Z,6.14
2019-03-05T17:54:16.093Z,6.04
2019-03-05T17:57:32.616Z,5.93
2019-03-05T18:00:40.599Z,5.92
2019-03-05T18:03:47.832Z,6.01
2019-03-05T18:06:55.093Z,6.05
2019-03-05T18:10:02.507Z,6.07
2019-03-05T18:13:09.823Z,6.00
2019-03-05T18:16:16.968Z,5.92
2019-03-05T18:19:24.115Z,5.90
2019-03-05T18:22:31.445Z,5.98
2019-03-05T18:25:38.856Z,5.89
2019-03-05T18:28:46.297Z,5.98
2019-03-05T18:32:03.154Z,5.97
2019-03-05T18:35:19.858Z,5.87
2019-03-05T18:38:27.170Z,5.67
2019-03-05T18:41:43.918Z,5.71
2019-03-05T18:45:00.533Z,5.77
2019-03-05T18:48:07.873Z,5.65
2019-03-05T18:51:24.655Z,5.71
2019-03-05T18:54:41.305Z,5.75
2019-03-05T18:57:48.652Z,5.62
2019-03-05T19:01:05.369Z,5.66
2019-03-05T19:04:22.129Z,5.54
2019-03-05T19:07:29.372Z,5.39
2019-03-05T19:10:46.104Z,5.38
2019-03-05T19:13:53.347Z,5.35
2019-03-05T19:17:00.556Z,5.27
2019-03-05T19:20:18.900Z,5.36
2019-03-05T19:23:35.641Z,5.38
2019-03-05T19:26:42.963Z,5.35
2019-03-05T19:29:50.166Z,5.08
2019-03-05T19:32:57.629Z,5.08
2019-03-05T19:36:14.147Z,5.11
2019-03-05T19:39:21.322Z,5.03
2019-03-05T19:42:28.462Z,5.08
2019-03-05T19:45:35.872Z,5.02
2019-03-05T19:48:52.524Z,4.96
2019-03-05T19:51:59.981Z,4.90
2019-03-05T19:55:19.662Z,4.75
2019-03-05T19:58:26.698Z,4.78
2019-03-05T20:01:36.675Z,4.70
2019-03-05T20:04:43.933Z,4.76
2019-03-05T20:07:51.261Z,4.78
2019-03-05T20:10:58.515Z,4.74
2019-03-05T20:14:05.843Z,4.79
2019-03-05T20:17:13.086Z,4.87
2019-03-05T20:20:20.697Z,4.88
2019-03-05T20:23:37.211Z,4.86
2019-03-05T20:26:44.470Z,4.90
2019-03-05T20:30:01.226Z,4.96
2019-03-05T20:33:08.583Z,4.91
2019-03-05T20:36:25.066Z,4.90
2019-03-05T20:39:32.241Z,4.74
2019-03-05T20:42:49.128Z,4.86
2019-03-05T20:46:00.254Z,4.80
2019-03-05T20:49:07.493Z,4.93
2019-03-05T20:52:14.692Z,5.07
2019-03-05T20:55:22.308Z,5.08
2019-03-05T20:58:29.463Z,5.16
2019-03-05T21:01:36.594Z,5.21
2019-03-05T21:04:44.193Z,5.28
2019-03-05T21:07:51.519Z,5.15
2019-03-05T21:10:58.808Z,5.26
2019-03-05T21:14:15.502Z,5.35
2019-03-05T21:17:22.652Z,5.27
2019-03-05T21:20:30.447Z,5.29
2019-03-05T21:23:37.735Z,5.14
2019-03-05T21:26:44.868Z,5.22
2019-03-05T21:29:50.867Z,5.26
2019-03-05T21:32:58.171Z,5.08
2019-03-05T21:36:05.494Z,5.18
2019-03-05T21:39:15.283Z,5.19
2019-03-05T21:42:22.528Z,5.05
2019-03-05T21:45:34.665Z,5.08
2019-03-05T21:48:42.234Z,5.13
2019-03-05T21:51:49.416Z,5.14
2019-03-05T21:54:56.550Z,5.16
2019-03-05T21:58:03.912Z,5.07
2019-03-05T22:01:11.112Z,5.17
2019-03-05T22:04:18.341Z,5.18
2019-03-05T22:07:25.625Z,4.99
2019-03-05T22:10:32.759Z,5.05
2019-03-05T22:13:40.005Z,5.03
2019-03-05T22:16:47.142Z,5.04
2019-03-05T22:19:54.317Z,4.96
2019-03-05T22:23:01.585Z,5.05
2019-03-05T22:26:07.759Z,5.10
2019-03-05T22:29:15.229Z,5.07
2019-03-05T22:32:22.515Z,4.97
2019-03-05T22:35:29.811Z,5.00
2019-03-05T22:38:37.036Z,5.01
2019-03-05T22:41:44.233Z,4.90
2019-03-05T22:44:51.539Z,4.96
2019-03-05T22:47:58.719Z,4.87
2019-03-05T22:51:05.976Z,4.89
2019-03-05T22:54:13.202Z,4.93
2019-03-05T22:57:20.385Z,4.86
2019-03-05T23:01:03.978Z,4.82
2019-03-05T23:04:34.852Z,4.94
2019-03-05T23:07:42.060Z,4.79
2019-03-05T23:10:49.346Z,4.81
2019-03-05T23:13:56.739Z,4.70
2019-03-05T23:17:13.380Z,4.63
2019-03-05T23:20:30.048Z,4.64
2019-03-05T23:23:37.280Z,4.69
2019-03-05T23:26:54.154Z,4.63
2019-03-05T23:30:00.349Z,4.62
2019-03-05T23:33:07.528Z,4.58
2019-03-05T23:36:14.830Z,4.59
2019-03-05T23:39:22.052Z,4.45
2019-03-05T23:42:29.332Z,4.55
2019-03-05T23:45:36.554Z,4.60
2019-03-05T23:48:43.954Z,4.62
2019-03-05T23:51:51.175Z,4.58
2019-03-05T23:54:58.591Z,4.38
2019-03-05T23:58:05.839Z,4.46
